createdAt,value
2023-06-19T00:14:48.954Z,24.47
2023-06-19T00:17:17.946Z,23.77
2023-06-19T00:19:45.370Z,23.82
2023-06-19T00:22:12.201Z,23.95
2023-06-19T00:24:39.106Z,23.72
2023-06-19T00:27:06.871Z,23.72
2023-06-19T00:29:35.580Z,23.75
2023-06-19T00:32:02.651Z,23.93
2023-06-19T00:34:31.007Z,23.29
2023-06-19T00:37:00.710Z,23.79
2023-06-19T00:39:28.562Z,24.33
2023-06-19T00:41:57.849Z,23.80
2023-06-19T00:44:24.684Z,24.01
2023-06-19T00:46:53.042Z,24.12
2023-06-19T00:49:19.913Z,24.27
2023-06-19T00:51:46.968Z,23.67
2023-06-19T00:54:15.521Z,23.82
2023-06-19T00:56:42.318Z,23.62
2023-06-19T00:59:14.478Z,24.08
2023-06-19T01:01:42.761Z,23.44
2023-06-19T01:04:09.645Z,23.69
2023-06-19T01:06:52.820Z,23.52
2023-06-19T01:09:21.031Z,23.48
2023-06-19T01:11:51.986Z,23.41
2023-06-19T01:14:40.580Z,23.42
2023-06-19T01:17:07.877Z,23.55
2023-06-19T01:19:35.681Z,23.44
2023-06-19T01:22:05.363Z,23.44
2023-06-19T01:24:32.393Z,23.83
2023-06-19T01:27:01.760Z,23.75
2023-06-19T01:29:28.792Z,23.73
2023-06-19T01:32:11.685Z,23.70
2023-06-19T01:34:40.805Z,23.69
2023-06-19T01:37:08.754Z,23.84
2023-06-19T01:39:37.903Z,23.73
2023-06-19T01:42:05.760Z,23.87
2023-06-19T01:44:33.894Z,23.85
2023-06-19T01:47:00.785Z,23.51
2023-06-19T01:49:27.690Z,23.67
2023-06-19T01:51:54.516Z,23.76
2023-06-19T01:54:21.344Z,23.47
2023-06-19T01:56:48.736Z,23.56
2023-06-19T01:59:15.748Z,23.61
2023-06-19T02:01:42.605Z,23.59
2023-06-19T02:04:09.478Z,23.42
2023-06-19T02:06:37.684Z,23.33
2023-06-19T02:09:05.711Z,23.33
2023-06-19T02:11:33.429Z,23.37
2023-06-19T02:14:00.273Z,23.19
2023-06-19T02:16:27.138Z,23.35
2023-06-19T02:18:56.989Z,23.09
2023-06-19T02:21:24.349Z,23.21
2023-06-19T02:23:52.295Z,23.18
2023-06-19T02:26:19.252Z,23.30
2023-06-19T02:28:47.366Z,23.06
2023-06-19T02:31:14.118Z,23.30
2023-06-19T02:33:41.042Z,23.32
2023-06-19T02:36:07.834Z,23.31
2023-06-19T02:38:34.660Z,23.39
2023-06-19T02:41:04.454Z,23.40
2023-06-19T02:43:33.284Z,23.67
2023-06-19T02:46:00.150Z,23.76
2023-06-19T02:48:29.067Z,23.39
2023-06-19T02:50:56.589Z,23.31
2023-06-19T02:53:23.717Z,23.46
2023-06-19T02:55:50.529Z,23.71
2023-06-19T02:58:17.277Z,23.65
2023-06-19T03:00:44.801Z,23.88
2023-06-19T03:03:12.858Z,23.86
2023-06-19T03:05:39.837Z,23.59
2023-06-19T03:08:06.878Z,23.25
2023-06-19T03:10:33.958Z,23.76
2023-06-19T03:13:00.738Z,23.44
2023-06-19T03:15:27.675Z,23.45
2023-06-19T03:17:54.986Z,23.12
2023-06-19T03:20:23.996Z,23.13
2023-06-19T03:22:56.247Z,23.42
2023-06-19T03:25:24.670Z,23.39
2023-06-19T03:27:51.890Z,23.42
2023-06-19T03:30:19.935Z,23.36
2023-06-19T03:32:50.544Z,23.04
2023-06-19T03:35:41.869Z,23.08
2023-06-19T03:38:13.219Z,23.05
2023-06-19T03:40:40.444Z,23.21
2023-06-19T03:43:12.280Z,23.20
2023-06-19T03:45:39.611Z,23.13
2023-06-19T03:48:06.828Z,23.59
2023-06-19T03:50:34.749Z,23.25
2023-06-19T03:53:01.644Z,23.35
2023-06-19T03:55:28.556Z,23.16
2023-06-19T03:57:55.670Z,23.39
2023-06-19T04:00:24.009Z,23.28
2023-06-19T04:02:51.724Z,23.06
2023-06-19T04:05:20.780Z,22.86
2023-06-19T04:07:47.987Z,23.42
2023-06-19T04:10:16.206Z,23.43
2023-06-19T04:12:43.157Z,23.83
2023-06-19T04:15:11.816Z,23.41
2023-06-19T04:17:38.780Z,23.57
2023-06-19T04:20:20.739Z,22.95
2023-06-19T04:22:50.814Z,23.11
2023-06-19T04:25:17.874Z,23.41
2023-06-19T04:27:45.789Z,23.07
2023-06-19T04:30:13.112Z,23.40
2023-06-19T04:32:42.801Z,23.35
2023-06-19T04:35:10.732Z,23.30
2023-06-19T04:37:37.629Z,22.98
2023-06-19T04:40:05.455Z,23.24
2023-06-19T04:42:32.492Z,23.02
2023-06-19T04:45:00.781Z,23.56
2023-06-19T04:47:36.412Z,23.24
2023-06-19T04:50:11.008Z,23.28
2023-06-19T04:52:38.831Z,23.53
2023-06-19T04:55:12.200Z,23.82
2023-06-19T04:57:39.152Z,23.09
2023-06-19T05:00:11.399Z,23.34
2023-06-19T05:02:38.470Z,23.60
2023-06-19T05:05:05.947Z,23.50
2023-06-19T05:07:33.104Z,23.48
2023-06-19T05:10:02.236Z,23.72
2023-06-19T05:12:29.079Z,23.67
2023-06-19T05:14:57.316Z,23.37
2023-06-19T05:17:24.288Z,24.07
2023-06-19T05:19:53.657Z,23.88
2023-06-19T05:22:22.661Z,23.68
2023-06-19T05:24:49.712Z,23.84
2023-06-19T05:27:16.614Z,23.71
2023-06-19T05:51:43.738Z,26.88
2023-06-19T05:54:11.048Z,27.46
2023-06-19T05:56:38.898Z,26.41
2023-06-19T05:59:05.850Z,25.87
2023-06-19T06:01:33.099Z,25.72
2023-06-19T06:13:21.600Z,23.71
2023-06-19T06:15:48.611Z,23.94
2023-06-19T06:18:15.448Z,24.17
2023-06-19T06:20:42.880Z,23.41
2023-06-19T06:23:10.443Z,23.42
2023-06-19T06:25:37.397Z,23.30
2023-06-19T06:28:04.538Z,23.40
2023-06-19T06:30:32.263Z,23.38
2023-06-19T06:32:59.651Z,23.69
2023-06-19T06:35:27.017Z,23.95
2023-06-19T06:37:54.143Z,24.75
2023-06-19T06:45:56.944Z,24.17
2023-06-19T06:48:24.639Z,24.24
2023-06-19T06:50:57.429Z,24.12
2023-06-19T06:53:26.816Z,24.76
2023-06-19T06:55:53.857Z,24.58
2023-06-19T06:58:22.636Z,24.71
2023-06-19T07:00:52.559Z,24.22
2023-06-19T07:06:04.448Z,24.61
2023-06-19T07:08:32.003Z,24.18
2023-06-19T07:10:59.585Z,24.66
2023-06-19T07:13:26.837Z,24.62
2023-06-19T07:15:54.344Z,23.86
2023-06-19T07:18:22.881Z,24.57
2023-06-19T07:20:49.760Z,24.82
2023-06-19T07:23:16.819Z,24.93
2023-06-19T07:25:43.697Z,25.22
2023-06-19T07:28:10.686Z,25.14
2023-06-19T07:30:37.518Z,25.11
2023-06-19T07:33:04.770Z,25.21
2023-06-19T07:35:31.832Z,25.20
2023-06-19T07:37:59.091Z,25.09
2023-06-19T07:40:29.166Z,25.64
2023-06-19T07:42:56.258Z,26.28
2023-06-19T07:45:27.095Z,26.44
2023-06-19T07:48:00.518Z,25.75
2023-06-19T07:50:28.955Z,26.09
2023-06-19T07:52:56.174Z,25.47
2023-06-19T07:55:23.035Z,25.46
2023-06-19T07:57:49.926Z,26.04
2023-06-19T08:00:17.166Z,25.42
2023-06-19T08:02:44.127Z,25.83
2023-06-19T08:05:14.270Z,25.42
2023-06-19T08:07:41.591Z,25.99
2023-06-19T08:10:27.613Z,24.84
2023-06-19T08:12:54.812Z,25.29
2023-06-19T08:15:21.878Z,25.29
2023-06-19T08:17:48.767Z,25.48
2023-06-19T08:20:15.727Z,25.74
2023-06-19T08:22:42.712Z,25.83
2023-06-19T08:25:09.813Z,26.36
2023-06-19T08:27:36.953Z,26.15
2023-06-19T08:30:08.408Z,26.16
2023-06-19T08:32:38.453Z,26.30
2023-06-19T08:35:05.895Z,26.29
2023-06-19T08:37:33.055Z,26.65
2023-06-19T08:40:01.132Z,26.01
2023-06-19T08:42:28.879Z,26.28
2023-06-19T08:44:55.966Z,27.03
2023-06-19T08:47:23.027Z,26.88
2023-06-19T08:49:50.860Z,27.03
2023-06-19T08:52:21.192Z,26.69
2023-06-19T08:54:49.154Z,26.85
2023-06-19T08:57:18.739Z,26.79
2023-06-19T08:59:53.367Z,26.98
2023-06-19T09:02:22.297Z,27.14
2023-06-19T09:04:50.971Z,26.75
2023-06-19T09:07:33.333Z,27.31
2023-06-19T09:10:00.924Z,27.16
2023-06-19T09:12:35.965Z,27.03
2023-06-19T09:15:04.274Z,26.94
2023-06-19T09:17:31.718Z,26.93
2023-06-19T09:20:07.002Z,26.90
2023-06-19T09:22:34.932Z,27.18
2023-06-19T09:25:05.480Z,26.91
2023-06-19T09:27:35.886Z,26.93
2023-06-19T09:30:06.353Z,27.44
2023-06-19T09:32:38.014Z,27.19
2023-06-19T09:38:19.418Z,27.70
2023-06-19T09:40:48.976Z,27.44
2023-06-19T09:43:24.151Z,27.35
2023-06-19T09:48:56.759Z,27.51
2023-06-19T09:52:03.477Z,27.73
2023-06-19T09:54:31.666Z,27.62
2023-06-19T09:57:01.192Z,27.50
2023-06-19T09:59:29.558Z,27.78
2023-06-19T10:05:14.882Z,27.57
2023-06-19T10:10:56.855Z,27.50
2023-06-19T10:13:35.268Z,27.55
2023-06-19T10:16:06.097Z,28.04
2023-06-19T10:18:36.271Z,28.40
2023-06-19T10:21:03.488Z,28.13
2023-06-19T10:36:27.284Z,28.82
2023-06-19T10:38:58.429Z,28.21
2023-06-19T10:41:26.492Z,28.56
2023-06-19T10:44:11.086Z,28.58
2023-06-19T10:46:39.675Z,29.08
2023-06-19T10:49:08.513Z,29.08
2023-06-19T10:51:36.519Z,28.79
2023-06-19T11:03:37.871Z,28.94
2023-06-19T11:11:57.911Z,29.20
2023-06-19T11:18:07.838Z,29.53
2023-06-19T11:30:08.665Z,29.87
2023-06-19T11:32:42.376Z,30.21
2023-06-19T11:35:12.301Z,30.21
2023-06-19T11:37:44.457Z,30.17
2023-06-19T11:40:16.569Z,30.12
2023-06-19T12:01:16.908Z,30.24
2023-06-19T12:06:46.906Z,30.26
2023-06-19T12:09:13.947Z,29.94
2023-06-19T12:11:42.441Z,29.80
2023-06-19T12:14:09.713Z,29.81
2023-06-19T12:16:37.016Z,29.77
2023-06-19T12:19:04.343Z,29.91
2023-06-19T12:21:37.802Z,29.78
2023-06-19T12:24:08.723Z,29.83
2023-06-19T12:26:38.643Z,29.91
2023-06-19T12:29:07.431Z,30.08
2023-06-19T12:31:35.838Z,29.43
2023-06-19T12:34:13.500Z,29.79
2023-06-19T12:36:51.442Z,29.68
2023-06-19T12:39:24.490Z,29.99
2023-06-19T12:41:52.979Z,29.96
2023-06-19T12:44:20.215Z,29.85
2023-06-19T12:46:48.119Z,29.96
2023-06-19T12:49:15.032Z,30.06
2023-06-19T12:51:42.985Z,29.95
2023-06-19T12:54:10.750Z,29.43
2023-06-19T12:56:39.658Z,29.90
2023-06-19T12:59:06.454Z,30.47
2023-06-19T13:01:33.618Z,29.47
2023-06-19T13:04:00.604Z,29.87
2023-06-19T13:06:27.704Z,29.83
2023-06-19T13:08:57.112Z,29.57
2023-06-19T13:11:24.184Z,30.12
2023-06-19T13:13:51.205Z,30.22
2023-06-19T13:16:27.223Z,30.23
2023-06-19T13:19:07.324Z,30.72
2023-06-19T13:21:34.940Z,30.38
2023-06-19T13:24:01.940Z,29.87
2023-06-19T13:26:34.871Z,30.39
2023-06-19T13:29:02.017Z,30.45
2023-06-19T13:31:28.952Z,29.92
2023-06-19T13:33:56.327Z,30.63
2023-06-19T13:36:25.122Z,30.67
2023-06-19T13:38:52.993Z,30.65
2023-06-19T13:41:20.127Z,30.61
2023-06-19T13:43:47.237Z,30.65
2023-06-19T13:46:14.344Z,30.53
2023-06-19T13:48:41.275Z,30.67
2023-06-19T13:51:08.930Z,30.44
2023-06-19T13:53:35.723Z,30.82
2023-06-19T13:56:02.805Z,31.00
2023-06-19T13:58:31.275Z,30.20
2023-06-19T14:00:58.548Z,29.99
2023-06-19T14:03:26.002Z,30.40
2023-06-19T14:05:53.104Z,30.59
2023-06-19T14:08:19.951Z,30.18
2023-06-19T14:10:46.831Z,30.16
2023-06-19T14:13:15.043Z,30.53
2023-06-19T14:15:42.350Z,30.76
2023-06-19T14:18:09.670Z,31.09
2023-06-19T14:20:36.642Z,30.21
2023-06-19T14:23:06.639Z,30.77
2023-06-19T14:25:36.538Z,30.82
2023-06-19T14:28:09.730Z,30.92
2023-06-19T14:30:37.123Z,30.44
2023-06-19T14:33:04.638Z,29.53
2023-06-19T14:35:35.319Z,29.83
2023-06-19T14:38:02.684Z,29.98
2023-06-19T14:40:38.750Z,30.15
2023-06-19T14:43:08.239Z,29.88
2023-06-19T14:45:35.758Z,29.79
2023-06-19T14:48:03.756Z,29.53
2023-06-19T14:50:42.887Z,29.34
2023-06-19T14:53:10.008Z,29.60
2023-06-19T14:55:36.927Z,30.29
2023-06-19T14:58:07.139Z,30.41
2023-06-19T15:00:43.402Z,30.19
2023-06-19T15:03:13.766Z,29.63
2023-06-19T15:05:46.036Z,30.08
2023-06-19T15:08:22.531Z,30.16
2023-06-19T15:11:11.240Z,29.84
2023-06-19T15:13:51.820Z,30.08
2023-06-19T15:16:26.610Z,30.70
2023-06-19T15:18:58.109Z,30.78
2023-06-19T15:21:50.229Z,30.94
2023-06-19T15:24:17.320Z,30.87
2023-06-19T15:26:44.601Z,30.54
2023-06-19T15:29:13.314Z,30.46
2023-06-19T15:31:40.832Z,30.29
2023-06-19T15:34:09.714Z,29.91
2023-06-19T15:36:36.799Z,30.83
2023-06-19T15:39:04.197Z,30.27
2023-06-19T15:41:48.212Z,30.54
2023-06-19T15:44:22.633Z,30.61
2023-06-19T15:46:49.580Z,29.88
2023-06-19T15:49:16.719Z,29.79
2023-06-19T15:51:43.608Z,30.02
2023-06-19T15:54:13.157Z,30.32
2023-06-19T15:56:50.197Z,30.75
2023-06-19T15:59:17.463Z,30.52
2023-06-19T16:01:44.437Z,30.06
2023-06-19T16:04:11.742Z,30.21
2023-06-19T16:06:40.850Z,30.05
2023-06-19T16:09:08.158Z,30.38
2023-06-19T16:11:35.801Z,30.54
2023-06-19T16:14:20.422Z,30.56
2023-06-19T16:16:47.276Z,30.15
2023-06-19T16:19:14.086Z,30.27
2023-06-19T16:21:40.867Z,29.94
2023-06-19T16:24:08.700Z,30.56
2023-06-19T16:26:35.572Z,30.48
2023-06-19T16:29:02.897Z,30.77
2023-06-19T16:31:30.183Z,30.68
2023-06-19T16:33:56.984Z,30.85
2023-06-19T16:36:24.609Z,30.38
2023-06-19T16:38:51.426Z,30.33
2023-06-19T16:41:20.784Z,30.65
2023-06-19T16:43:47.888Z,30.72
2023-06-19T16:46:14.870Z,30.52
2023-06-19T16:48:41.725Z,30.52
2023-06-19T16:51:08.791Z,30.47
2023-06-19T16:53:36.084Z,30.24
2023-06-19T16:56:02.876Z,30.57
2023-06-19T16:58:29.924Z,30.07
2023-06-19T17:00:56.850Z,29.80
2023-06-19T17:03:24.321Z,30.42
2023-06-19T17:05:51.186Z,29.93
2023-06-19T17:08:18.195Z,29.76
2023-06-19T17:10:45.151Z,30.54
2023-06-19T17:13:12.027Z,30.11
2023-06-19T17:15:38.920Z,30.41
2023-06-19T17:18:07.429Z,30.34
2023-06-19T17:20:35.060Z,30.64
2023-06-19T17:23:01.938Z,30.61
2023-06-19T17:25:29.537Z,30.82
2023-06-19T17:27:56.965Z,30.16
2023-06-19T17:30:24.197Z,30.00
2023-06-19T17:32:51.628Z,30.59
2023-06-19T17:35:18.812Z,30.11
2023-06-19T17:37:45.774Z,30.21
2023-06-19T17:40:14.451Z,30.09
2023-06-19T17:42:41.973Z,30.46
2023-06-19T17:45:10.218Z,30.66
2023-06-19T17:47:37.236Z,30.62
2023-06-19T17:50:04.333Z,30.23
2023-06-19T17:52:31.201Z,30.06
2023-06-19T17:54:58.080Z,30.29
2023-06-19T17:57:25.089Z,30.12
2023-06-19T17:59:52.453Z,30.49
2023-06-19T18:02:19.395Z,30.48
2023-06-19T18:04:46.252Z,30.51
2023-06-19T18:07:13.104Z,30.49
2023-06-19T18:09:40.330Z,30.50
2023-06-19T18:12:07.292Z,30.54
2023-06-19T18:14:34.151Z,30.35
2023-06-19T18:17:04.743Z,30.43
2023-06-19T18:19:31.805Z,30.45
2023-06-19T18:21:58.619Z,30.45
2023-06-19T18:24:25.521Z,30.45
2023-06-19T18:26:52.379Z,30.37
2023-06-19T18:29:38.932Z,30.32
2023-06-19T18:32:09.475Z,30.42
2023-06-19T18:34:41.553Z,30.32
2023-06-19T18:37:08.612Z,30.23
2023-06-19T18:39:42.310Z,30.08
2023-06-19T18:42:14.883Z,30.18
2023-06-19T18:44:41.725Z,30.23
2023-06-19T18:47:08.655Z,30.15
2023-06-19T18:49:35.719Z,30.11
2023-06-19T18:52:03.356Z,30.20
2023-06-19T18:54:30.102Z,30.17
2023-06-19T18:56:57.549Z,30.21
2023-06-19T18:59:24.540Z,30.13
2023-06-19T19:01:51.844Z,30.16
2023-06-19T19:04:18.828Z,30.05
2023-06-19T19:06:45.634Z,30.06
2023-06-19T19:09:12.538Z,30.03
2023-06-19T19:11:39.550Z,30.03
2023-06-19T19:14:06.439Z,29.88
2023-06-19T19:16:33.220Z,30.01
2023-06-19T19:19:00.358Z,29.69
2023-06-19T19:21:27.208Z,29.88
2023-06-19T19:23:54.090Z,29.89
2023-06-19T19:26:21.084Z,29.94
2023-06-19T19:28:47.868Z,29.85
2023-06-19T19:31:15.390Z,29.82
2023-06-19T19:33:42.225Z,29.83
2023-06-19T19:36:09.352Z,29.80
2023-06-19T19:38:37.529Z,29.80
2023-06-19T19:41:04.408Z,29.72
2023-06-19T19:43:31.415Z,29.75
2023-06-19T19:45:58.257Z,29.71
2023-06-19T19:48:25.246Z,29.68
2023-06-19T19:50:51.977Z,29.60
2023-06-19T19:53:19.124Z,29.54
2023-06-19T19:55:45.797Z,29.58
2023-06-19T19:58:14.476Z,29.54
2023-06-19T20:00:49.728Z,29.54
2023-06-19T20:03:17.661Z,29.52
2023-06-19T20:05:44.648Z,29.46
2023-06-19T20:08:11.540Z,29.38
2023-06-19T20:10:38.573Z,29.34
2023-06-19T20:13:05.503Z,29.38
2023-06-19T20:15:32.364Z,29.49
2023-06-19T20:17:59.213Z,29.47
2023-06-19T20:20:26.769Z,29.31
2023-06-19T20:22:54.162Z,29.33
2023-06-19T20:25:21.816Z,29.41
2023-06-19T20:28:06.076Z,29.32
2023-06-19T20:30:34.645Z,29.19
2023-06-19T20:33:01.510Z,29.15
2023-06-19T20:35:28.382Z,29.33
2023-06-19T20:37:55.732Z,29.13
2023-06-19T20:40:23.545Z,29.23
2023-06-19T20:42:52.247Z,29.31
2023-06-19T20:45:19.928Z,29.27
2023-06-19T20:47:46.623Z,29.20
2023-06-19T20:50:15.288Z,29.21
2023-06-19T20:52:42.005Z,29.15
2023-06-19T20:55:09.470Z,28.99
2023-06-19T20:57:36.596Z,28.97
2023-06-19T21:00:10.651Z,28.96
2023-06-19T21:02:41.154Z,29.07
2023-06-19T21:05:09.966Z,29.05
2023-06-19T21:07:36.957Z,28.89
2023-06-19T21:10:04.965Z,29.00
2023-06-19T21:12:32.477Z,28.96
2023-06-19T21:14:59.320Z,28.94
2023-06-19T21:17:26.210Z,28.94
2023-06-19T21:19:54.549Z,28.88
2023-06-19T21:22:21.359Z,28.85
2023-06-19T21:24:48.234Z,28.74
2023-06-19T21:27:15.008Z,28.70
2023-06-19T21:29:43.687Z,28.69
2023-06-19T21:32:10.373Z,28.64
2023-06-19T21:34:37.217Z,28.56
2023-06-19T21:37:04.036Z,28.77
2023-06-19T21:39:30.782Z,28.78
2023-06-19T21:41:57.604Z,28.69
2023-06-19T21:44:24.477Z,28.61
2023-06-19T21:46:51.523Z,28.59
2023-06-19T21:49:18.691Z,28.66
2023-06-19T21:51:45.557Z,28.56
2023-06-19T21:54:12.303Z,28.44
2023-06-19T21:56:39.438Z,28.28
2023-06-19T21:59:07.973Z,28.42
2023-06-19T22:01:35.482Z,28.15
2023-06-19T22:04:03.391Z,28.17
2023-06-19T22:06:31.489Z,28.15
2023-06-19T22:09:01.264Z,28.14
2023-06-19T22:11:29.224Z,28.30
2023-06-19T22:13:57.538Z,28.38
2023-06-19T22:16:24.744Z,28.32
2023-06-19T22:18:51.578Z,28.24
2023-06-19T22:21:19.204Z,28.26
2023-06-19T22:23:46.128Z,28.38
2023-06-19T22:26:13.302Z,28.43
2023-06-19T22:28:53.994Z,28.37
2023-06-19T22:31:33.152Z,28.25
2023-06-19T22:34:07.405Z,28.35
2023-06-19T22:36:47.007Z,28.25
2023-06-19T22:39:22.959Z,28.35
2023-06-19T22:41:50.048Z,28.37
2023-06-19T22:44:16.898Z,28.38
2023-06-19T22:46:43.765Z,28.32
2023-06-19T22:49:14.940Z,28.17
2023-06-19T22:51:41.915Z,28.23
2023-06-19T22:54:08.720Z,28.00
2023-06-19T22:56:35.761Z,27.99
2023-06-19T22:59:02.970Z,28.23
2023-06-19T23:01:31.871Z,28.23
2023-06-19T23:03:58.768Z,28.18
2023-06-19T23:06:28.300Z,28.07
2023-06-19T23:08:55.167Z,28.02
2023-06-19T23:11:22.207Z,28.06
2023-06-19T23:13:48.957Z,27.90
2023-06-19T23:16:15.752Z,27.97
2023-06-19T23:18:42.439Z,28.03
2023-06-19T23:21:09.518Z,28.07
2023-06-19T23:23:37.673Z,27.89
2023-06-19T23:26:04.413Z,28.07
2023-06-19T23:28:32.876Z,28.05
2023-06-19T23:31:00.302Z,27.87
2023-06-19T23:33:31.235Z,28.02
2023-06-19T23:36:01.380Z,28.02
2023-06-19T23:38:31.925Z,28.09
2023-06-19T23:40:58.891Z,28.07
2023-06-19T23:43:26.071Z,27.94
2023-06-19T23:45:52.976Z,27.87
2023-06-19T23:48:22.674Z,27.89
2023-06-19T23:50:49.937Z,27.89
2023-06-19T23:53:16.876Z,27.76
2023-06-19T23:55:52.977Z,27.53
2023-06-19T23:58:23.475Z,27.86
